createdAt,value
2024-04-25T00:01:18.750Z,95192.63
2024-04-25T00:03:51.396Z,95190.47
2024-04-25T00:06:21.312Z,95189.28
2024-04-25T00:08:51.054Z,95189.47
2024-04-25T00:11:22.600Z,95190.31
2024-04-25T00:13:55.129Z,95186.06
2024-04-25T00:16:24.934Z,95189.72
2024-04-25T00:18:58.807Z,95177.22
2024-04-25T00:21:28.794Z,95175.66
2024-04-25T00:23:58.447Z,95174.00
2024-04-25T00:26:28.469Z,95178.72
2024-04-25T00:29:00.155Z,95184.97
2024-04-25T00:31:31.251Z,95178.63
2024-04-25T00:34:03.602Z,95178.97
2024-04-25T00:36:33.371Z,95179.47
2024-04-25T00:39:03.651Z,95167.81
2024-04-25T00:41:33.398Z,95168.66
2024-04-25T00:44:03.666Z,95169.94
2024-04-25T00:46:33.421Z,95172.38
2024-04-25T00:49:05.777Z,95168.78
2024-04-25T00:51:37.284Z,95164.19
2024-04-25T00:54:07.729Z,95164.66
2024-04-25T00:56:40.470Z,95160.78
2024-04-25T00:59:12.983Z,95167.41
2024-04-25T01:01:45.087Z,95163.03
2024-04-25T01:04:19.391Z,95162.13
2024-04-25T01:06:54.173Z,95162.81
2024-04-25T01:09:23.816Z,95167.44
2024-04-25T01:11:54.063Z,95156.56
2024-04-25T01:14:24.080Z,95156.88
2024-04-25T01:16:53.960Z,95163.75
2024-04-25T01:19:26.416Z,95157.91
2024-04-25T01:21:56.906Z,95158.34
2024-04-25T01:24:30.532Z,95156.56
2024-04-25T01:27:05.304Z,95151.66
2024-04-25T01:29:36.595Z,95155.13
2024-04-25T01:32:08.833Z,95159.75
2024-04-25T01:34:38.751Z,95153.28
2024-04-25T01:37:08.642Z,95142.00
2024-04-25T01:39:38.322Z,95151.25
2024-04-25T01:42:11.032Z,95152.03
2024-04-25T01:44:40.736Z,95151.59
2024-04-25T01:47:10.705Z,95150.50
2024-04-25T01:49:40.647Z,95150.13
2024-04-25T01:52:10.514Z,95148.19
2024-04-25T01:54:40.309Z,95154.22
2024-04-25T01:57:12.654Z,95149.19
2024-04-25T01:59:42.353Z,95144.69
2024-04-25T02:02:12.137Z,95148.16
2024-04-25T02:04:41.856Z,95141.78
2024-04-25T02:07:12.363Z,95145.00
2024-04-25T02:09:42.123Z,95141.50
2024-04-25T02:12:14.893Z,95135.25
2024-04-25T02:14:44.605Z,95134.94
2024-04-25T02:17:15.118Z,95134.06
2024-04-25T02:19:45.115Z,95131.22
2024-04-25T02:22:30.530Z,95127.16
2024-04-25T02:25:18.397Z,95125.13
2024-04-25T02:27:51.000Z,95127.94
2024-04-25T02:30:20.679Z,95124.81
2024-04-25T02:32:50.457Z,95128.81
2024-04-25T02:35:20.232Z,95128.38
2024-04-25T02:37:49.980Z,95128.81
2024-04-25T02:40:19.990Z,95119.09
2024-04-25T02:42:52.426Z,95124.03
2024-04-25T02:45:19.482Z,95126.50
2024-04-25T02:47:49.295Z,95123.44
2024-04-25T02:50:16.509Z,95116.03
2024-04-25T02:52:46.220Z,95116.50
2024-04-25T02:55:13.577Z,95108.56
2024-04-25T02:57:43.271Z,95111.69
2024-04-25T03:00:14.235Z,95110.50
2024-04-25T03:02:44.621Z,95119.03
2024-04-25T03:05:11.728Z,95109.97
2024-04-25T03:07:41.680Z,95122.84
2024-04-25T03:10:09.315Z,95124.03
2024-04-25T03:12:39.051Z,95117.06
2024-04-25T03:15:06.572Z,95117.84
2024-04-25T03:17:39.098Z,95115.47
2024-04-25T03:20:07.651Z,95115.47
2024-04-25T03:22:37.367Z,95118.16
2024-04-25T03:25:07.235Z,95120.78
2024-04-25T03:27:38.672Z,95123.97
2024-04-25T03:30:06.850Z,95113.69
2024-04-25T03:32:39.382Z,95119.88
2024-04-25T03:35:07.050Z,95115.31
2024-04-25T03:37:36.862Z,95113.69
2024-04-25T03:40:06.989Z,95112.88
2024-04-25T03:42:36.655Z,95120.19
2024-04-25T03:45:06.420Z,95125.66
2024-04-25T03:47:36.244Z,95126.50
2024-04-25T03:50:10.430Z,95133.41
2024-04-25T03:52:40.213Z,95124.50
2024-04-25T03:55:10.226Z,95127.72
2024-04-25T03:57:39.941Z,95134.63
2024-04-25T04:02:37.871Z,95132.66
2024-04-25T04:05:10.750Z,95135.44
2024-04-25T04:07:40.831Z,95135.78
2024-04-25T04:10:11.051Z,95138.88
2024-04-25T04:12:40.724Z,95133.94
2024-04-25T04:15:10.837Z,95147.97
2024-04-25T04:17:40.639Z,95138.69
2024-04-25T04:20:13.581Z,95148.38
2024-04-25T04:22:43.420Z,95150.44
2024-04-25T04:25:13.450Z,95143.44
2024-04-25T04:27:43.176Z,95146.88
2024-04-25T04:30:13.479Z,95147.22
2024-04-25T04:32:43.347Z,95150.00
2024-04-25T04:35:15.871Z,95155.88
2024-04-25T04:37:45.654Z,95147.28
2024-04-25T04:40:15.462Z,95140.41
2024-04-25T04:42:45.213Z,95146.78
2024-04-25T04:45:14.934Z,95146.78
2024-04-25T04:47:44.787Z,95144.31
2024-04-25T04:50:20.416Z,95150.72
2024-04-25T04:52:50.440Z,95152.69
2024-04-25T04:55:20.143Z,95146.94
2024-04-25T04:57:49.841Z,95150.66
2024-04-25T05:00:20.000Z,95161.41
2024-04-25T05:02:49.919Z,95163.88
2024-04-25T05:05:23.043Z,95162.56
2024-04-25T05:07:57.299Z,95158.16
2024-04-25T05:10:27.823Z,95154.25
2024-04-25T05:12:58.177Z,95156.88
2024-04-25T05:15:27.937Z,95152.28
2024-04-25T05:17:57.749Z,95156.88
2024-04-25T05:20:30.085Z,95155.38
2024-04-25T05:22:59.967Z,95158.94
2024-04-25T05:25:29.769Z,95151.41
2024-04-25T05:27:59.561Z,95166.44
2024-04-25T05:30:29.232Z,95163.75
2024-04-25T05:33:00.520Z,95158.72
2024-04-25T05:35:33.018Z,95160.59
2024-04-25T05:38:02.798Z,95163.78
2024-04-25T05:40:32.922Z,95157.19
2024-04-25T05:43:02.666Z,95166.09
2024-04-25T05:45:32.299Z,95168.56
2024-04-25T05:48:02.174Z,95166.31
2024-04-25T05:50:34.588Z,95165.81
2024-04-25T05:53:05.868Z,95164.84
2024-04-25T05:55:36.479Z,95165.66
2024-04-25T05:58:11.281Z,95168.72
2024-04-25T06:00:41.010Z,95171.72
2024-04-25T06:03:10.838Z,95166.53
2024-04-25T06:05:43.264Z,95173.53
2024-04-25T06:08:13.127Z,95171.94
2024-04-25T06:10:42.947Z,95182.03
2024-04-25T06:13:13.666Z,95173.53
2024-04-25T06:15:43.947Z,95187.19
2024-04-25T06:18:13.993Z,95183.09
2024-04-25T06:20:46.465Z,95190.06
2024-04-25T06:23:16.891Z,95185.03
2024-04-25T06:25:47.974Z,95188.59
2024-04-25T06:28:17.688Z,95186.16
2024-04-25T06:30:47.424Z,95191.25
2024-04-25T06:33:17.381Z,95191.59
2024-04-25T06:35:49.888Z,95201.31
2024-04-25T06:38:19.621Z,95193.97
2024-04-25T06:40:49.839Z,95194.06
2024-04-25T06:43:19.578Z,95208.03
2024-04-25T06:45:49.297Z,95200.09
2024-04-25T06:48:19.218Z,95200.97
2024-04-25T06:50:51.759Z,95205.94
2024-04-25T06:53:21.552Z,95195.69
2024-04-25T06:55:51.289Z,95198.81
2024-04-25T06:58:21.035Z,95199.09
2024-04-25T07:00:50.763Z,95199.28
2024-04-25T07:03:20.567Z,95193.06
2024-04-25T07:05:53.351Z,95200.31
2024-04-25T07:08:23.300Z,95194.00
2024-04-25T07:10:53.408Z,95188.59
2024-04-25T07:13:26.358Z,95194.69
2024-04-25T07:15:56.530Z,95193.19
2024-04-25T07:18:26.344Z,95189.69
2024-04-25T07:20:58.707Z,95195.47
2024-04-25T07:23:29.196Z,95198.00
2024-04-25T07:25:59.109Z,95195.66
2024-04-25T07:28:28.879Z,95194.84
2024-04-25T07:30:58.559Z,95192.53
2024-04-25T07:33:28.455Z,95194.00
2024-04-25T07:36:00.845Z,95193.88
2024-04-25T07:38:33.778Z,95191.97
2024-04-25T07:41:03.538Z,95197.97
2024-04-25T07:43:33.307Z,95195.66
2024-04-25T07:46:04.249Z,95202.38
2024-04-25T07:48:34.220Z,95210.19
2024-04-25T07:51:07.196Z,95205.50
2024-04-25T07:53:36.939Z,95201.00
2024-04-25T07:56:09.858Z,95200.19
2024-04-25T07:58:39.584Z,95207.91
2024-04-25T08:01:12.438Z,95200.72
2024-04-25T08:03:42.263Z,95212.22
2024-04-25T08:06:15.506Z,95196.16
2024-04-25T08:08:45.331Z,95200.88
2024-04-25T08:11:15.904Z,95200.03
2024-04-25T08:13:47.040Z,95213.34
2024-04-25T08:16:16.725Z,95206.41
2024-04-25T08:18:49.312Z,95218.22
2024-04-25T08:21:21.617Z,95219.63
2024-04-25T08:23:51.424Z,95221.72
2024-04-25T08:26:21.124Z,95219.31
2024-04-25T08:28:50.835Z,95216.28
2024-04-25T08:31:20.553Z,95210.66
2024-04-25T08:33:50.380Z,95217.00
2024-04-25T08:36:22.782Z,95214.03
2024-04-25T08:38:53.071Z,95219.56
2024-04-25T08:41:24.009Z,95219.44
2024-04-25T08:43:54.121Z,95217.94
2024-04-25T08:46:28.240Z,95214.50
2024-04-25T08:49:03.097Z,95212.53
2024-04-25T08:51:37.127Z,95213.41
2024-04-25T08:54:08.189Z,95216.72
2024-04-25T08:56:38.065Z,95217.72
2024-04-25T08:59:07.971Z,95211.66
2024-04-25T09:01:42.819Z,95209.66
2024-04-25T09:04:17.747Z,95212.69
2024-04-25T09:06:50.210Z,95210.41
2024-04-25T09:09:20.831Z,95206.47
2024-04-25T09:11:55.113Z,95208.47
2024-04-25T09:14:25.512Z,95217.38
2024-04-25T09:16:55.245Z,95209.06
2024-04-25T09:19:26.173Z,95208.47
2024-04-25T09:21:58.721Z,95200.34
2024-04-25T09:24:29.263Z,95193.19
2024-04-25T09:26:56.966Z,95203.38
2024-04-25T09:29:26.858Z,95196.59
2024-04-25T09:31:56.591Z,95201.03
2024-04-25T09:34:26.568Z,95199.38
2024-04-25T09:36:59.587Z,95198.63
2024-04-25T09:39:29.370Z,95200.53
2024-04-25T09:42:00.514Z,95211.47
2024-04-25T09:44:30.701Z,95204.63
2024-04-25T09:47:06.167Z,95201.50
2024-04-25T09:49:43.569Z,95196.81
2024-04-25T09:52:24.327Z,95195.19
2024-04-25T09:55:03.094Z,95190.91
2024-04-25T09:57:36.724Z,95198.06
2024-04-25T10:00:08.535Z,95182.56
2024-04-25T10:02:40.664Z,95178.50
2024-04-25T10:05:10.498Z,95176.53
2024-04-25T10:07:45.924Z,95169.91
2024-04-25T10:10:16.737Z,95175.72
2024-04-25T10:12:53.049Z,95169.41
2024-04-25T10:15:30.046Z,95196.81
2024-04-25T10:18:00.428Z,95204.84
2024-04-25T10:20:30.431Z,95215.16
2024-04-25T10:23:05.798Z,95219.97
2024-04-25T10:25:35.860Z,95225.00
2024-04-25T10:28:09.577Z,95223.19
2024-04-25T10:30:39.322Z,95222.66
2024-04-25T10:33:09.301Z,95224.91
2024-04-25T10:35:40.488Z,95221.41
2024-04-25T10:38:23.203Z,95217.31
2024-04-25T10:40:53.019Z,95218.41
2024-04-25T10:43:22.764Z,95229.88
2024-04-25T10:45:53.359Z,95213.59
2024-04-25T10:48:23.288Z,95218.53
2024-04-25T10:50:53.533Z,95206.94
2024-04-25T10:53:27.131Z,95211.41
2024-04-25T10:55:57.168Z,95200.47
2024-04-25T10:58:26.840Z,95199.81
2024-04-25T11:00:56.600Z,95189.97
2024-04-25T11:03:29.083Z,95199.44
2024-04-25T11:06:01.830Z,95189.91
2024-04-25T11:08:34.919Z,95193.16
2024-04-25T11:11:04.788Z,95192.31
2024-04-25T11:13:34.782Z,95190.47
2024-04-25T11:16:04.608Z,95180.22
2024-04-25T11:18:35.462Z,95183.53
2024-04-25T11:21:07.420Z,95186.66
2024-04-25T11:23:41.927Z,95175.75
2024-04-25T11:26:11.765Z,95176.78
2024-04-25T11:28:42.022Z,95172.47
2024-04-25T11:31:12.082Z,95171.44
2024-04-25T11:33:44.567Z,95165.94
2024-04-25T11:36:26.264Z,95167.91
2024-04-25T11:39:00.030Z,95169.09
2024-04-25T11:41:29.828Z,95167.09
2024-04-25T11:44:01.813Z,95160.84
2024-04-25T11:46:31.645Z,95159.25
2024-04-25T11:49:04.913Z,95154.50
2024-04-25T11:51:34.735Z,95145.91
2024-04-25T11:54:07.808Z,95160.81
2024-04-25T11:56:38.424Z,95163.19
2024-04-25T11:59:08.152Z,95162.75
2024-04-25T12:01:37.858Z,95156.88
2024-04-25T12:04:10.114Z,95153.66
2024-04-25T12:06:40.267Z,95139.72
2024-04-25T12:09:12.650Z,95140.38
2024-04-25T12:11:46.894Z,95133.06
2024-04-25T12:14:19.325Z,95131.53
2024-04-25T12:16:49.317Z,95139.41
2024-04-25T12:19:19.083Z,95118.97
2024-04-25T12:21:48.928Z,95120.66
2024-04-25T12:24:21.377Z,95120.16
2024-04-25T12:26:51.107Z,95111.13
2024-04-25T12:29:20.934Z,95109.78
2024-04-25T12:31:51.008Z,95108.09
2024-04-25T12:34:20.890Z,95115.97
2024-04-25T12:36:50.915Z,95117.09
2024-04-25T12:39:26.292Z,95117.81
2024-04-25T12:41:57.331Z,95115.44
2024-04-25T12:44:30.746Z,95111.41
2024-04-25T12:47:00.786Z,95116.69
2024-04-25T12:49:37.468Z,95112.56
2024-04-25T12:52:09.052Z,95114.75
2024-04-25T12:54:42.624Z,95105.63
2024-04-25T12:57:13.388Z,95107.72
2024-04-25T12:59:45.673Z,95105.81
2024-04-25T13:02:18.196Z,95115.84
2024-04-25T13:04:47.950Z,95115.06
2024-04-25T13:07:17.749Z,95124.81
2024-04-25T13:09:50.163Z,95126.16
2024-04-25T13:12:19.855Z,95119.97
2024-04-25T13:14:49.634Z,95128.53
2024-04-25T13:17:19.458Z,95130.44
2024-04-25T13:19:49.151Z,95124.00
2024-04-25T13:22:18.896Z,95119.66
2024-04-25T13:24:52.381Z,95128.63
2024-04-25T13:27:22.098Z,95121.50
2024-04-25T13:29:51.836Z,95124.69
2024-04-25T13:32:22.593Z,95120.72
2024-04-25T13:34:53.140Z,95118.00
2024-04-25T13:37:24.194Z,95120.34
2024-04-25T13:39:56.650Z,95116.03
2024-04-25T13:42:26.745Z,95117.56
2024-04-25T13:44:56.502Z,95122.25
2024-04-25T13:47:26.634Z,95117.56
2024-04-25T13:49:56.414Z,95120.75
2024-04-25T13:52:26.650Z,95129.41
2024-04-25T13:54:58.998Z,95121.47
2024-04-25T14:00:15.334Z,95125.84
2024-04-25T14:02:45.515Z,95110.44
2024-04-25T14:05:16.164Z,95120.72
2024-04-25T14:07:52.188Z,95118.28
2024-04-25T14:10:27.720Z,95113.19
2024-04-25T14:12:57.499Z,95110.50
2024-04-25T14:15:27.314Z,95112.81
2024-04-25T14:17:57.277Z,95110.47
2024-04-25T14:20:27.140Z,95108.91
2024-04-25T14:22:56.898Z,95110.06
2024-04-25T14:25:44.347Z,95104.19
2024-04-25T14:28:29.987Z,95108.16
2024-04-25T14:30:59.729Z,95113.63
2024-04-25T14:33:29.585Z,95108.88
2024-04-25T14:35:59.488Z,95103.41
2024-04-25T14:38:29.351Z,95107.19
2024-04-25T14:41:07.211Z,95102.38
2024-04-25T14:43:38.789Z,95090.78
2024-04-25T14:46:08.575Z,95076.38
2024-04-25T14:48:39.171Z,95079.81
2024-04-25T14:51:08.987Z,95081.34
2024-04-25T14:53:38.736Z,95073.38
2024-04-25T14:56:11.356Z,95072.53
2024-04-25T14:58:41.040Z,95079.16
2024-04-25T15:01:10.914Z,95073.97
2024-04-25T15:03:43.718Z,95072.56
2024-04-25T15:06:13.487Z,95076.41
2024-04-25T15:08:43.373Z,95069.53
2024-04-25T15:11:17.429Z,95078.44
2024-04-25T15:13:47.197Z,95073.34
2024-04-25T15:16:16.941Z,95073.25
2024-04-25T15:18:46.673Z,95084.34
2024-04-25T15:21:19.018Z,95076.75
2024-04-25T15:23:48.762Z,95076.06
2024-04-25T15:26:21.215Z,95076.84
2024-04-25T15:28:50.908Z,95073.59
2024-04-25T15:31:23.970Z,95079.56
2024-04-25T15:33:53.753Z,95075.28
2024-04-25T15:36:23.473Z,95079.47
2024-04-25T15:38:53.195Z,95080.66
2024-04-25T15:41:25.644Z,95071.97
2024-04-25T15:43:55.349Z,95069.47
2024-04-25T15:46:26.891Z,95068.28
2024-04-25T15:48:56.824Z,95065.81
2024-04-25T15:51:26.664Z,95064.63
2024-04-25T15:53:56.526Z,95067.03
2024-04-25T15:56:28.928Z,95060.44
2024-04-25T15:58:58.859Z,95068.81
2024-04-25T16:01:28.730Z,95053.03
2024-04-25T16:03:58.480Z,95055.56
2024-04-25T16:06:28.191Z,95048.69
2024-04-25T16:08:57.962Z,95052.38
2024-04-25T16:11:30.519Z,95055.66
2024-04-25T16:14:00.250Z,95063.09
2024-04-25T16:16:29.987Z,95053.72
2024-04-25T16:19:06.775Z,95054.56
2024-04-25T16:21:38.759Z,95051.28
2024-04-25T16:24:10.083Z,95051.41
2024-04-25T16:26:42.538Z,95048.78
2024-04-25T16:29:12.877Z,95052.31
2024-04-25T16:31:42.702Z,95055.22
2024-04-25T16:34:12.606Z,95053.03
2024-04-25T16:36:42.425Z,95051.19
2024-04-25T16:39:12.236Z,95040.97
2024-04-25T16:41:44.765Z,95051.59
2024-04-25T16:44:14.588Z,95048.75
2024-04-25T16:46:45.493Z,95046.72
2024-04-25T16:49:15.373Z,95051.53
2024-04-25T16:51:45.174Z,95049.09
2024-04-25T16:54:15.233Z,95051.06
2024-04-25T16:56:47.678Z,95050.53
2024-04-25T16:59:17.484Z,95045.38
2024-04-25T17:01:47.269Z,95052.91
2024-04-25T17:04:17.012Z,95048.38
2024-04-25T17:06:52.478Z,95055.59
2024-04-25T17:09:27.883Z,95052.19
2024-04-25T17:12:01.005Z,95049.59
2024-04-25T17:14:31.595Z,95052.75
2024-04-25T17:17:02.763Z,95046.16
2024-04-25T17:19:33.253Z,95059.84
2024-04-25T17:22:08.170Z,95052.84
2024-04-25T17:24:39.030Z,95062.94
2024-04-25T17:27:12.689Z,95058.31
2024-04-25T17:29:42.757Z,95059.84
2024-04-25T17:32:13.671Z,95060.63
2024-04-25T17:34:46.410Z,95063.03
2024-04-25T17:37:16.138Z,95060.63
2024-04-25T17:39:47.493Z,95066.78
2024-04-25T17:42:20.006Z,95072.97
2024-04-25T17:44:54.236Z,95064.75
2024-04-25T17:47:24.897Z,95070.78
2024-04-25T17:49:55.391Z,95069.16
2024-04-25T17:52:25.112Z,95073.00
2024-04-25T17:54:56.881Z,95081.72
2024-04-25T17:57:29.230Z,95073.88
2024-04-25T17:59:58.971Z,95085.88
2024-04-25T18:02:29.581Z,95083.72
2024-04-25T18:05:01.367Z,95086.06
2024-04-25T18:07:34.123Z,95086.94
2024-04-25T18:10:03.935Z,95092.84
2024-04-25T18:12:36.292Z,95087.72
2024-04-25T18:15:06.375Z,95103.09
2024-04-25T18:17:36.126Z,95093.63
2024-04-25T18:20:05.975Z,95089.34
2024-04-25T18:22:37.790Z,95101.88
2024-04-25T18:25:08.147Z,95098.00
2024-04-25T18:27:42.473Z,95098.31
2024-04-25T18:30:13.835Z,95094.34
2024-04-25T18:32:46.019Z,95099.13
2024-04-25T18:35:16.170Z,95104.28
2024-04-25T18:37:46.141Z,95107.81
2024-04-25T18:40:16.088Z,95105.06
2024-04-25T18:42:48.567Z,95110.56
2024-04-25T18:45:18.343Z,95103.84
2024-04-25T18:47:48.149Z,95110.13
2024-04-25T18:50:18.136Z,95118.38
2024-04-25T18:52:47.976Z,95109.78
2024-04-25T18:55:17.866Z,95117.56
2024-04-25T18:57:50.195Z,95116.41
2024-04-25T19:00:20.261Z,95116.81
2024-04-25T19:02:50.080Z,95107.78
2024-04-25T19:05:19.906Z,95123.06
2024-04-25T19:07:49.673Z,95125.38
2024-04-25T19:10:20.828Z,95127.75
2024-04-25T19:12:54.539Z,95125.00
2024-04-25T19:15:24.334Z,95121.47
2024-04-25T19:17:54.188Z,95123.09
2024-04-25T19:20:25.229Z,95121.47
2024-04-25T19:22:55.040Z,95112.06
2024-04-25T19:25:24.765Z,95122.25
2024-04-25T19:27:57.124Z,95116.00
2024-04-25T19:30:26.856Z,95112.44
2024-04-25T19:32:56.725Z,95114.78
2024-04-25T19:35:26.565Z,95118.34
2024-04-25T19:37:56.364Z,95115.97
2024-04-25T19:40:26.163Z,95116.00
2024-04-25T19:42:58.833Z,95119.53
2024-04-25T19:45:28.565Z,95117.94
2024-04-25T19:47:58.459Z,95123.81
2024-04-25T19:50:28.865Z,95130.84
2024-04-25T19:52:59.976Z,95121.50
2024-04-25T19:55:30.148Z,95128.56
2024-04-25T19:58:02.496Z,95114.03
2024-04-25T20:00:32.249Z,95126.56
2024-04-25T20:03:02.176Z,95123.78
2024-04-25T20:05:32.103Z,95118.72
2024-04-25T20:08:01.949Z,95117.53
2024-04-25T20:10:35.276Z,95122.63
2024-04-25T20:13:08.416Z,95122.25
2024-04-25T20:15:38.206Z,95121.84
2024-04-25T20:18:24.343Z,95121.41
2024-04-25T20:21:06.750Z,95122.25
2024-04-25T20:23:40.091Z,95117.53
2024-04-25T20:26:11.359Z,95118.34
2024-04-25T20:28:44.892Z,95122.66
2024-04-25T20:31:19.195Z,95117.13
2024-04-25T20:33:49.368Z,95115.97
2024-04-25T20:36:19.310Z,95112.81
2024-04-25T20:38:51.376Z,95113.22
2024-04-25T20:41:22.692Z,95116.00
2024-04-25T20:43:55.190Z,95115.56
2024-04-25T20:46:25.787Z,95128.47
2024-04-25T20:48:58.215Z,95124.09
2024-04-25T20:51:31.145Z,95126.91
2024-04-25T20:54:01.681Z,95123.31
2024-04-25T20:56:32.348Z,95126.00
2024-04-25T20:59:04.894Z,95119.34
2024-04-25T21:01:39.116Z,95127.59
2024-04-25T21:04:09.329Z,95124.28
2024-04-25T21:06:43.864Z,95119.50
2024-04-25T21:09:15.249Z,95124.56
2024-04-25T21:11:44.951Z,95131.97
2024-04-25T21:14:17.345Z,95123.91
2024-04-25T21:16:47.059Z,95120.88
2024-04-25T21:19:16.905Z,95120.13
2024-04-25T21:21:50.041Z,95121.00
2024-04-25T21:24:19.954Z,95115.53
2024-04-25T21:26:50.219Z,95112.84
2024-04-25T21:29:23.418Z,95114.53
2024-04-25T21:31:53.707Z,95110.63
2024-04-25T21:34:24.038Z,95117.59
2024-04-25T21:36:54.510Z,95111.47
2024-04-25T21:39:24.318Z,95120.72
2024-04-25T21:41:54.121Z,95113.81
2024-04-25T21:44:26.576Z,95103.91
2024-04-25T21:46:56.292Z,95102.59
2024-04-25T21:49:26.196Z,95096.75
2024-04-25T21:51:56.112Z,95115.09
2024-04-25T21:54:25.903Z,95106.22
2024-04-25T21:56:56.701Z,95106.06
2024-04-25T21:59:29.240Z,95106.88
2024-04-25T22:01:59.155Z,95103.78
2024-04-25T22:04:28.902Z,95106.78
2024-04-25T22:06:59.109Z,95104.06
2024-04-25T22:09:26.230Z,95107.56
2024-04-25T22:11:56.038Z,95105.03
2024-04-25T22:14:25.897Z,95101.91
2024-04-25T22:16:58.409Z,95096.41
2024-04-25T22:19:28.466Z,95100.28
2024-04-25T22:21:58.396Z,95099.00
2024-04-25T22:24:28.457Z,95096.50
2024-04-25T22:26:58.568Z,95099.44
2024-04-25T22:29:28.497Z,95102.47
2024-04-25T22:32:01.264Z,95096.16
2024-04-25T22:34:31.104Z,95102.66
2024-04-25T22:37:00.816Z,95098.50
2024-04-25T22:39:30.977Z,95105.78
2024-04-25T22:42:00.999Z,95104.13
2024-04-25T22:44:30.916Z,95104.94
2024-04-25T22:47:03.551Z,95102.56
2024-04-25T22:49:33.633Z,95102.66
2024-04-25T22:52:03.721Z,95097.25
2024-04-25T22:54:33.998Z,95102.34
2024-04-25T22:57:03.825Z,95111.13
2024-04-25T22:59:34.121Z,95104.47
2024-04-25T23:02:06.908Z,95103.59
2024-04-25T23:04:36.962Z,95106.34
2024-04-25T23:07:06.848Z,95095.72
2024-04-25T23:09:37.415Z,95103.81
2024-04-25T23:12:09.554Z,95107.44
2024-04-25T23:14:39.985Z,95109.03
2024-04-25T23:17:12.663Z,95102.44
2024-04-25T23:19:45.505Z,95097.72
2024-04-25T23:22:15.460Z,95098.13
2024-04-25T23:24:45.318Z,95097.63
2024-04-25T23:27:15.382Z,95094.34
2024-04-25T23:29:45.492Z,95097.53
2024-04-25T23:32:18.250Z,95092.81
2024-04-25T23:34:48.068Z,95087.47
2024-04-25T23:37:17.790Z,95088.28
2024-04-25T23:39:47.668Z,95088.88
2024-04-25T23:42:17.710Z,95091.09
2024-04-25T23:44:47.849Z,95084.16
2024-04-25T23:47:21.324Z,95094.72
2024-04-25T23:49:51.611Z,95091.31
2024-04-25T23:52:21.366Z,95082.97
2024-04-25T23:54:51.316Z,95092.16
2024-04-25T23:57:21.166Z,95088.00
2024-04-25T23:59:51.018Z,95086.53
